Historyczne dane pomiarowe

Dodano dane terminowe – wersja testowa.

Dane z okresu 1951-2019

Wersja bazy: 1.34 [2019-03-16, lista zmian], aktualizacja planowana na 2019-04-15

Dane meteo z obszaru Polski uzyskane na podstawie danych udostępnionych przez Instytut Meteorologii i Gospodarki Wodnej – Państwowy Instytut Badawczy.

 

Wybierz Datę:    

       

TemperaturaWilgotnośćWiatrCiśnienieOpadyŚniegCzas trwania zjawisk
 Stacja t tx tn tng RH VA  wxwx mslp ppp RRR   cm mm wxwxwxwxwxwxwx
1994-08-14 15.2 20.1 13.2 11.0 74.3- 3.7 2.3---- 0.0------------
1994-08-13 18.6 23.2 14.3 13.6 80.5- 6.3 3.3---- 5.9------------
1994-08-12 17.5 20.3 15.3 14.3 89.8- 8.0 1.7---- 4.6------------
1994-08-11 18.1 23.2 14.9 14.1 95.5- 7.3 1.0---- 10.2------------
1994-08-10 20.6 26.5 14.3 12.9 79.0- 0.7 1.3---- 0.8------------
1994-08-09 18.9 22.6 17.2 16.5 95.8- 8.0 1.7---- 4.0------------
1994-08-08 21.4 28.3 17.7 16.5 89.3- 7.0 0.3---- 0.3------------
1994-08-07 24.3 31.0 20.3 20.0 78.3- 5.0 0.3---- 2.7------------
1994-08-06 24.6 32.5 15.7 10.1 72.0- 1.3 0.7---- 0.0------------
1994-08-05 23.2 30.0 17.0 13.8 78.0- 0.7 1.0---- 0.0------------
1994-08-04 22.2 28.4 16.7 14.6 85.5- 3.0 0.7---- 2.5------------
1994-08-03 23.2 30.6 19.2 17.0 78.3- 4.7 2.0---- 3.9------------
1994-08-02 24.7 31.8 18.7 14.1 80.8- 4.0 0.7---- 0.0------------
1994-08-01 27.1 35.0 19.7 14.1 73.0- 3.7 0.7---- 2.3------------
1994-07-31 26.2 34.2 17.7 8.9 75.5- 0.7 0.3---- 0.0------------
1994-07-30 25.7 33.6 16.7 8.7 75.0- 0.0 1.7---- 0.0------------
1994-07-29 25.1 32.6 15.9 8.2 79.5- 0.0 0.3---- 0.0------------
1994-07-28 25.3 32.2 16.7 8.3 75.5- 1.3 2.0---- 0.0------------
1994-07-27 24.5 32.4 16.2 6.7 77.0- 1.7 0.7---- 0.0------------
1994-07-26 24.3 31.8 15.4 7.7 79.0- 0.3 0.3---- 0.0------------
1994-07-25 23.2 30.5 15.2 6.3 82.8- 2.7 0.7---- 0.0------------
1994-07-24 22.4 29.5 13.9 5.3 77.3- 1.0 0.7---- 0.0------------
1994-07-23 21.2 27.5 12.9 7.2 79.8- 1.0 0.0---- 0.0------------
1994-07-22 20.8 28.0 12.7 4.8 77.8- 1.0 1.0---- 0.0------------
1994-07-21 19.4 25.5 11.7 7.3 81.8- 0.0 0.7---- 0.0------------
1994-07-20 18.3 22.9 11.8 4.8 79.8- 1.7 1.0---- 0.0------------
1994-07-19 19.3 24.5 13.1 5.7 87.0- 3.7 1.3---- 0.0------------
1994-07-18 20.7 26.4 16.2 10.6 86.8- 4.3 0.3---- 0.0------------
1994-07-17 21.4 28.4 16.7 10.6 87.5- 5.3 0.7---- 2.8------------
1994-07-16 22.7 29.1 16.9 10.2 83.0- 3.0 1.0---- 0.0------------
1994-07-15 21.3 26.9 14.7 8.3 84.0- 2.7 1.0---- 0.0------------
1994-07-14 21.2 27.7 15.3 8.2 82.3- 5.3 1.3---- 0.0------------
1994-07-13 20.8 26.6 13.8 5.3 80.3- 3.0 1.7---- 0.0------------
1994-07-12 20.0 25.1 15.2 9.6 86.5- 5.7 1.7---- 0.0------------
1994-07-11 17.8 23.9 13.2 7.2 91.3- 5.0 2.0---- 0.0------------
1994-07-10 15.4 20.4 12.2 6.4 94.0- 7.0 1.0---- 1.4------------
1994-07-09 15.9 18.9 13.4 4.3 86.5- 7.7 3.0---- 14.1------------
1994-07-08 16.9 21.9 14.5 8.5 82.0- 4.7 2.7---- 0.0------------
1994-07-07 18.6 25.5 12.7 4.9 88.0- 6.7 1.7---- 6.0------------
1994-07-06 19.9 24.9 14.3 7.2 79.3- 1.7 0.7---- 0.0------------
1994-07-05 20.0 24.7 14.7 6.7 89.0- 6.3 0.7---- 0.0------------
1994-07-04 21.2 27.5 12.3 4.6 83.0- 1.0 1.0---- 0.0------------
1994-07-03 19.5 25.1 12.2 5.3 81.3- 0.3 1.0---- 0.0------------
1994-07-02 19.2 23.9 11.7 4.8 85.5- 0.0 0.7---- 0.0------------
1994-07-01 19.7 22.9 16.2 10.6 85.8- 2.7 0.7---- 0.0------------
1994-06-30 22.7 26.8 19.7 13.8 86.3- 6.0 2.3---- 0.0------------
1994-06-29 24.1 29.5 17.1 10.1 85.5- 0.0 0.3---- 0.0------------
1994-06-28 24.7 29.2 18.3 12.1 84.3- 4.0 0.3---- 0.0------------
1994-06-27 26.2 31.5 21.2 12.6 74.5- 3.7 0.7---- 0.0------------
1994-06-26 21.3 28.5 10.6 2.4 77.0- 0.3 1.0---- 0.0------------
1994-06-25 16.4 21.9 7.1 1.0 74.5- 0.0 1.3---- 0.0------------
1994-06-24 15.5 19.9 8.7 1.9 66.3- 0.0 3.7---- 0.0------------
1994-06-23 18.4 23.4 15.9 10.2 67.8- 4.0 3.0---- 0.0------------
1994-06-22 19.2 26.2 10.9 4.3 76.8- 3.3 2.3---- 0.0------------
1994-06-21 16.5 20.9 9.9 8.4 81.0- 2.0 0.3---- 0.0------------
1994-06-20 16.6 23.5 11.7 6.3 79.8- 3.3 2.0---- 0.0------------
1994-06-19 19.1 25.1 11.6 6.7 72.0- 5.0 2.3---- 0.0------------
1994-06-18 13.9 19.8 7.2 1.9 79.5- 4.3 1.0---- 6.0------------
1994-06-17 11.6 15.0 9.2 5.0 80.3- 5.3 4.0---- 0.0------------
1994-06-16 13.9 17.5 8.9 3.9 73.3- 6.0 5.3---- 1.0------------
462.6 ms

 

Źródłem pochodzenia danych jest Instytut Meteorologii i Gospodarki Wodnej – Państwowy Instytut Badawczy. Dane Instytutu Meteorologii i Gospodarki Wodnej – Państwowego Instytutu Badawczego zostały przetworzone.

Dane źródłowe można odnaleźć na stronie https://dane.imgw.pl